sensor_id;sensor_type;location;lat;lon;timestamp;pressure;altitude;pressure_sealevel;temperature;humidity
52249;BME280;38541;48.130;8.378;2023-03-14T00:00:11;91245.88;;;8.81;78.54
52249;BME280;38541;48.130;8.378;2023-03-14T00:02:39;91241.47;;;8.77;78.15
52249;BME280;38541;48.130;8.378;2023-03-14T00:05:07;91264.84;;;8.73;78.08
52249;BME280;38541;48.130;8.378;2023-03-14T00:07:36;91255.44;;;8.72;78.31
52249;BME280;38541;48.130;8.378;2023-03-14T00:10:12;91255.44;;;8.72;77.44
52249;BME280;38541;48.130;8.378;2023-03-14T00:12:40;91255.44;;;8.72;77.91
52249;BME280;38541;48.130;8.378;2023-03-14T00:15:07;91269.59;;;8.71;77.77
52249;BME280;38541;48.130;8.378;2023-03-14T00:17:34;91285.56;;;8.69;77.79
52249;BME280;38541;48.130;8.378;2023-03-14T00:20:03;91296.44;;;8.63;77.45
52249;BME280;38541;48.130;8.378;2023-03-14T00:22:35;91296.91;;;8.65;77.77
52249;BME280;38541;48.130;8.378;2023-03-14T00:25:03;91314.47;;;8.64;78.21
52249;BME280;38541;48.130;8.378;2023-03-14T00:27:29;91318.84;;;8.69;78.51
52249;BME280;38541;48.130;8.378;2023-03-14T00:29:56;91324.09;;;8.69;78.71
52249;BME280;38541;48.130;8.378;2023-03-14T00:32:23;91323.78;;;8.70;78.04
52249;BME280;38541;48.130;8.378;2023-03-14T00:34:49;91321.16;;;8.70;77.71
52249;BME280;38541;48.130;8.378;2023-03-14T00:37:16;91337.66;;;8.71;77.34
52249;BME280;38541;48.130;8.378;2023-03-14T00:39:43;91327.94;;;8.71;77.59
52249;BME280;38541;48.130;8.378;2023-03-14T00:42:09;91335.53;;;8.73;78.17
52249;BME280;38541;48.130;8.378;2023-03-14T00:44:36;91322.94;;;8.75;77.43
52249;BME280;38541;48.130;8.378;2023-03-14T00:47:06;91320.63;;;8.74;78.13
52249;BME280;38541;48.130;8.378;2023-03-14T00:49:33;91315.94;;;8.70;78.11
52249;BME280;38541;48.130;8.378;2023-03-14T00:51:59;91311.00;;;8.69;77.74
52249;BME280;38541;48.130;8.378;2023-03-14T00:54:26;91305.75;;;8.69;78.22
52249;BME280;38541;48.130;8.378;2023-03-14T00:56:53;91298.00;;;8.64;78.44
52249;BME280;38541;48.130;8.378;2023-03-14T00:59:19;91291.19;;;8.43;76.06
52249;BME280;38541;48.130;8.378;2023-03-14T01:01:46;91281.22;;;8.26;75.75
52249;BME280;38541;48.130;8.378;2023-03-14T01:04:13;91285.59;;;8.31;77.44
52249;BME280;38541;48.130;8.378;2023-03-14T01:06:39;91273.91;;;8.23;76.14
52249;BME280;38541;48.130;8.378;2023-03-14T01:09:06;91277.56;;;8.27;76.60
52249;BME280;38541;48.130;8.378;2023-03-14T01:11:34;91273.66;;;8.25;76.24
52249;BME280;38541;48.130;8.378;2023-03-14T01:14:02;91265.94;;;8.34;77.91
52249;BME280;38541;48.130;8.378;2023-03-14T01:16:32;91270.47;;;8.28;76.58
52249;BME280;38541;48.130;8.378;2023-03-14T01:19:00;91267.56;;;8.30;76.38
52249;BME280;38541;48.130;8.378;2023-03-14T01:21:29;91269.13;;;8.31;75.92
52249;BME280;38541;48.130;8.378;2023-03-14T01:23:58;91254.56;;;8.24;76.01
52249;BME280;38541;48.130;8.378;2023-03-14T01:26:27;91251.31;;;8.13;75.84
52249;BME280;38541;48.130;8.378;2023-03-14T01:28:56;91248.69;;;8.13;76.86
52249;BME280;38541;48.130;8.378;2023-03-14T01:31:24;91266.66;;;8.01;75.54
52249;BME280;38541;48.130;8.378;2023-03-14T01:33:51;91255.06;;;7.88;75.13
52249;BME280;38541;48.130;8.378;2023-03-14T01:36:18;91264.25;;;7.85;75.57
52249;BME280;38541;48.130;8.378;2023-03-14T01:38:45;91263.53;;;7.80;75.50
52249;BME280;38541;48.130;8.378;2023-03-14T01:41:16;91248.56;;;7.85;75.49
52249;BME280;38541;48.130;8.378;2023-03-14T01:43:43;91261.44;;;8.01;75.96
52249;BME280;38541;48.130;8.378;2023-03-14T01:46:17;91244.03;;;7.91;74.80
52249;BME280;38541;48.130;8.378;2023-03-14T01:48:55;91251.28;;;7.75;75.50
52249;BME280;38541;48.130;8.378;2023-03-14T01:51:40;91239.09;;;7.70;75.50
52249;BME280;38541;48.130;8.378;2023-03-14T01:57:03;91224.75;;;7.43;74.91
52249;BME280;38541;48.130;8.378;2023-03-14T01:59:32;91220.09;;;7.40;75.48
52249;BME280;38541;48.130;8.378;2023-03-14T02:01:59;91217.16;;;7.23;76.35
52249;BME280;38541;48.130;8.378;2023-03-14T02:04:32;91215.53;;;7.27;77.03
52249;BME280;38541;48.130;8.378;2023-03-14T02:07:09;91229.63;;;7.31;76.48
52249;BME280;38541;48.130;8.378;2023-03-14T02:09:43;91240.56;;;7.33;76.58
52249;BME280;38541;48.130;8.378;2023-03-14T02:12:19;91224.50;;;7.21;76.17
52249;BME280;38541;48.130;8.378;2023-03-14T02:14:51;91230.88;;;7.09;76.72
52249;BME280;38541;48.130;8.378;2023-03-14T02:17:22;91233.78;;;7.08;76.87
52249;BME280;38541;48.130;8.378;2023-03-14T02:20:38;91237.56;;;7.21;nan
52249;BME280;38541;48.130;8.378;2023-03-14T02:23:09;91243.34;;;6.93;75.96
52249;BME280;38541;48.130;8.378;2023-03-14T02:25:57;91217.38;;;6.78;76.74
52249;BME280;38541;48.130;8.378;2023-03-14T02:28:27;91193.44;;;6.70;76.41
52249;BME280;38541;48.130;8.378;2023-03-14T02:30:59;91192.44;;;6.66;76.05
52249;BME280;38541;48.130;8.378;2023-03-14T02:33:26;91186.50;;;6.61;76.56
52249;BME280;38541;48.130;8.378;2023-03-14T02:35:57;91176.28;;;6.64;76.41
52249;BME280;38541;48.130;8.378;2023-03-14T02:38:47;91182.78;;;6.67;76.47
52249;BME280;38541;48.130;8.378;2023-03-14T02:41:17;91169.16;;;6.70;76.63
52249;BME280;38541;48.130;8.378;2023-03-14T02:43:50;91156.78;;;6.56;76.71
52249;BME280;38541;48.130;8.378;2023-03-14T02:46:18;91153.00;;;6.68;76.80
52249;BME280;38541;48.130;8.378;2023-03-14T02:48:51;91168.16;;;6.66;76.30
52249;BME280;38541;48.130;8.378;2023-03-14T02:51:19;91143.69;;;6.62;75.36
52249;BME280;38541;48.130;8.378;2023-03-14T02:53:47;91144.81;;;6.55;74.94
52249;BME280;38541;48.130;8.378;2023-03-14T02:56:14;91134.81;;;6.63;75.76
52249;BME280;38541;48.130;8.378;2023-03-14T02:58:41;91157.06;;;6.55;74.69
52249;BME280;38541;48.130;8.378;2023-03-14T03:01:27;91128.34;;;6.55;75.15
52249;BME280;38541;48.130;8.378;2023-03-14T03:03:54;91129.34;;;6.59;75.36
52249;BME280;38541;48.130;8.378;2023-03-14T03:06:20;91130.41;;;6.58;74.16
52249;BME280;38541;48.130;8.378;2023-03-14T03:08:47;91137.19;;;6.59;74.56
52249;BME280;38541;48.130;8.378;2023-03-14T03:11:13;91119.66;;;6.65;73.77
52249;BME280;38541;48.130;8.378;2023-03-14T03:13:40;91120.13;;;6.67;74.67
52249;BME280;38541;48.130;8.378;2023-03-14T03:16:07;91114.34;;;6.70;74.04
52249;BME280;38541;48.130;8.378;2023-03-14T03:18:34;91103.91;;;6.70;74.09
52249;BME280;38541;48.130;8.378;2023-03-14T03:21:02;91110.59;;;6.57;74.10
52249;BME280;38541;48.130;8.378;2023-03-14T03:23:30;91090.78;;;6.56;73.76
52249;BME280;38541;48.130;8.378;2023-03-14T03:25:57;91092.31;;;6.57;73.63
52249;BME280;38541;48.130;8.378;2023-03-14T03:28:23;91087.78;;;6.68;73.82
52249;BME280;38541;48.130;8.378;2023-03-14T03:30:51;91096.94;;;6.65;73.45
52249;BME280;38541;48.130;8.378;2023-03-14T03:33:17;91097.28;;;6.59;73.35
52249;BME280;38541;48.130;8.378;2023-03-14T03:35:46;91084.72;;;6.61;73.23
52249;BME280;38541;48.130;8.378;2023-03-14T03:38:16;91085.50;;;6.61;72.87
52249;BME280;38541;48.130;8.378;2023-03-14T03:40:44;91092.88;;;6.54;72.52
52249;BME280;38541;48.130;8.378;2023-03-14T03:43:11;91106.25;;;6.47;73.43
52249;BME280;38541;48.130;8.378;2023-03-14T03:45:40;91086.75;;;6.45;72.72
52249;BME280;38541;48.130;8.378;2023-03-14T03:48:07;91079.63;;;6.50;73.94
52249;BME280;38541;48.130;8.378;2023-03-14T03:50:33;91070.19;;;6.54;74.04
52249;BME280;38541;48.130;8.378;2023-03-14T03:53:00;91078.63;;;6.70;73.75
52249;BME280;38541;48.130;8.378;2023-03-14T03:55:27;91071.63;;;6.66;73.07
52249;BME280;38541;48.130;8.378;2023-03-14T03:57:54;91091.06;;;6.54;72.75
52249;BME280;38541;48.130;8.378;2023-03-14T04:00:21;91065.31;;;6.48;72.88
52249;BME280;38541;48.130;8.378;2023-03-14T04:02:47;91067.06;;;6.52;73.40
52249;BME280;38541;48.130;8.378;2023-03-14T04:05:16;91073.00;;;6.58;73.18
52249;BME280;38541;48.130;8.378;2023-03-14T04:07:56;91054.19;;;6.61;72.87
52249;BME280;38541;48.130;8.378;2023-03-14T04:10:26;91052.84;;;6.64;72.83
52249;BME280;38541;48.130;8.378;2023-03-14T04:13:06;91054.97;;;6.62;73.50
52249;BME280;38541;48.130;8.378;2023-03-14T04:15:33;91067.75;;;6.63;73.36
52249;BME280;38541;48.130;8.378;2023-03-14T04:18:06;91058.56;;;6.66;72.54
52249;BME280;38541;48.130;8.378;2023-03-14T04:20:34;91055.41;;;6.69;73.49
52249;BME280;38541;48.130;8.378;2023-03-14T04:23:02;91064.75;;;6.75;73.21
52249;BME280;38541;48.130;8.378;2023-03-14T04:25:28;91053.16;;;6.81;73.28
52249;BME280;38541;48.130;8.378;2023-03-14T04:27:57;91062.34;;;6.98;73.87
52249;BME280;38541;48.130;8.378;2023-03-14T04:30:27;91068.00;;;7.05;73.36
52249;BME280;38541;48.130;8.378;2023-03-14T04:32:59;91041.88;;;7.05;72.14
52249;BME280;38541;48.130;8.378;2023-03-14T04:35:32;91063.28;;;7.07;73.53
52249;BME280;38541;48.130;8.378;2023-03-14T04:38:04;91061.16;;;6.90;72.59
52249;BME280;38541;48.130;8.378;2023-03-14T04:40:32;91035.66;;;6.82;72.32
52249;BME280;38541;48.130;8.378;2023-03-14T04:43:03;91046.78;;;6.93;72.38
52249;BME280;38541;48.130;8.378;2023-03-14T04:45:30;91028.19;;;6.94;72.15
52249;BME280;38541;48.130;8.378;2023-03-14T04:47:59;91029.97;;;6.99;71.92
52249;BME280;38541;48.130;8.378;2023-03-14T04:50:25;91031.59;;;6.95;70.93
52249;BME280;38541;48.130;8.378;2023-03-14T04:52:52;91030.03;;;6.94;71.53
52249;BME280;38541;48.130;8.378;2023-03-14T04:55:18;91024.81;;;6.94;71.48
52249;BME280;38541;48.130;8.378;2023-03-14T04:57:45;91027.78;;;7.06;71.57
52249;BME280;38541;48.130;8.378;2023-03-14T05:00:13;91028.22;;;7.13;71.22
52249;BME280;38541;48.130;8.378;2023-03-14T05:03:00;91021.00;;;7.05;71.00
52249;BME280;38541;48.130;8.378;2023-03-14T05:05:26;91030.53;;;7.15;71.84
52249;BME280;38541;48.130;8.378;2023-03-14T05:08:12;91027.72;;;7.11;70.87
52249;BME280;38541;48.130;8.378;2023-03-14T05:10:53;91020.28;;;7.19;70.97
52249;BME280;38541;48.130;8.378;2023-03-14T05:13:40;91014.50;;;7.22;71.33
52249;BME280;38541;48.130;8.378;2023-03-14T05:16:25;91007.72;;;7.21;70.30
52249;BME280;38541;48.130;8.378;2023-03-14T05:18:59;91008.72;;;7.06;69.10
52249;BME280;38541;48.130;8.378;2023-03-14T05:21:41;90995.25;;;6.98;69.72
52249;BME280;38541;48.130;8.378;2023-03-14T05:24:25;91008.03;;;7.00;70.64
52249;BME280;38541;48.130;8.378;2023-03-14T05:27:10;91006.88;;;7.06;70.54
52249;BME280;38541;48.130;8.378;2023-03-14T05:29:43;91003.03;;;7.04;70.23
52249;BME280;38541;48.130;8.378;2023-03-14T05:32:38;91010.06;;;7.03;70.61
52249;BME280;38541;48.130;8.378;2023-03-14T05:35:08;91002.31;;;6.98;70.10
52249;BME280;38541;48.130;8.378;2023-03-14T05:37:48;90998.22;;;7.11;71.10
52249;BME280;38541;48.130;8.378;2023-03-14T05:40:47;91007.38;;;7.08;70.44
52249;BME280;38541;48.130;8.378;2023-03-14T05:43:38;91001.75;;;7.20;70.63
52249;BME280;38541;48.130;8.378;2023-03-14T05:46:23;91001.66;;;7.25;70.26
52249;BME280;38541;48.130;8.378;2023-03-14T05:49:07;91006.03;;;7.30;71.20
52249;BME280;38541;48.130;8.378;2023-03-14T05:52:08;91003.97;;;7.27;70.61
52249;BME280;38541;48.130;8.378;2023-03-14T05:54:56;91005.88;;;7.40;71.29
52249;BME280;38541;48.130;8.378;2023-03-14T05:57:36;90998.50;;;7.42;70.46
52249;BME280;38541;48.130;8.378;2023-03-14T06:00:08;90998.88;;;7.36;70.04
52249;BME280;38541;48.130;8.378;2023-03-14T06:02:39;91003.63;;;7.34;70.96
52249;BME280;38541;48.130;8.378;2023-03-14T06:05:16;90993.47;;;7.32;69.75
52249;BME280;38541;48.130;8.378;2023-03-14T06:07:43;90998.13;;;7.35;69.92
52249;BME280;38541;48.130;8.378;2023-03-14T06:10:10;90999.66;;;7.36;69.87
52249;BME280;38541;48.130;8.378;2023-03-14T06:12:37;90993.75;;;7.31;68.17
52249;BME280;38541;48.130;8.378;2023-03-14T06:15:04;91009.84;;;7.19;68.00
52249;BME280;38541;48.130;8.378;2023-03-14T06:17:32;90988.38;;;7.22;69.53
52249;BME280;38541;48.130;8.378;2023-03-14T06:20:07;90993.38;;;7.37;69.20
52249;BME280;38541;48.130;8.378;2023-03-14T06:22:33;90981.38;;;7.36;68.63
52249;BME280;38541;48.130;8.378;2023-03-14T06:25:01;90986.97;;;7.30;68.95
52249;BME280;38541;48.130;8.378;2023-03-14T06:27:27;90978.56;;;7.33;68.70
52249;BME280;38541;48.130;8.378;2023-03-14T06:29:55;90976.72;;;7.33;67.50
52249;BME280;38541;48.130;8.378;2023-03-14T06:32:23;90968.69;;;7.30;68.32
52249;BME280;38541;48.130;8.378;2023-03-14T06:34:52;90966.34;;;7.28;68.21
52249;BME280;38541;48.130;8.378;2023-03-14T06:37:19;90968.31;;;7.36;67.20
52249;BME280;38541;48.130;8.378;2023-03-14T06:39:47;90970.34;;;7.39;67.04
52249;BME280;38541;48.130;8.378;2023-03-14T06:42:25;90969.53;;;7.58;66.93
52249;BME280;38541;48.130;8.378;2023-03-14T06:44:53;90965.47;;;7.52;65.62
52249;BME280;38541;48.130;8.378;2023-03-14T06:47:19;90969.28;;;7.40;66.65
52249;BME280;38541;48.130;8.378;2023-03-14T06:49:46;90981.06;;;7.38;65.07
52249;BME280;38541;48.130;8.378;2023-03-14T06:52:16;90957.69;;;7.47;66.44
52249;BME280;38541;48.130;8.378;2023-03-14T06:54:42;90982.59;;;7.58;64.22
52249;BME280;38541;48.130;8.378;2023-03-14T06:57:09;90972.41;;;7.56;65.20
52249;BME280;38541;48.130;8.378;2023-03-14T06:59:35;90984.72;;;7.56;65.51
52249;BME280;38541;48.130;8.378;2023-03-14T07:02:02;90975.16;;;7.65;66.45
52249;BME280;38541;48.130;8.378;2023-03-14T07:04:28;90962.38;;;7.64;64.40
52249;BME280;38541;48.130;8.378;2023-03-14T07:06:55;90957.16;;;7.78;65.09
52249;BME280;38541;48.130;8.378;2023-03-14T07:09:22;90950.78;;;7.84;64.44
52249;BME280;38541;48.130;8.378;2023-03-14T07:11:55;90957.75;;;8.03;64.20
52249;BME280;38541;48.130;8.378;2023-03-14T07:14:22;90951.97;;;8.06;64.34
52249;BME280;38541;48.130;8.378;2023-03-14T07:16:49;90963.78;;;7.89;63.24
52249;BME280;38541;48.130;8.378;2023-03-14T07:19:16;90965.69;;;7.83;63.30
52249;BME280;38541;48.130;8.378;2023-03-14T07:21:42;90979.09;;;7.96;61.69
52249;BME280;38541;48.130;8.378;2023-03-14T07:24:11;90985.56;;;7.98;62.39
52249;BME280;38541;48.130;8.378;2023-03-14T07:26:39;90968.22;;;8.03;61.43
52249;BME280;38541;48.130;8.378;2023-03-14T07:29:06;90980.16;;;8.09;63.34
52249;BME280;38541;48.130;8.378;2023-03-14T07:31:33;90966.88;;;8.19;62.07
52249;BME280;38541;48.130;8.378;2023-03-14T07:34:01;90976.38;;;8.15;62.07
52249;BME280;38541;48.130;8.378;2023-03-14T07:36:32;90977.34;;;8.05;61.89
52249;BME280;38541;48.130;8.378;2023-03-14T07:38:58;90969.59;;;8.00;62.37
52249;BME280;38541;48.130;8.378;2023-03-14T07:41:47;90956.59;;;7.81;61.92
52249;BME280;38541;48.130;8.378;2023-03-14T07:44:33;90958.25;;;7.91;63.97
52249;BME280;38541;48.130;8.378;2023-03-14T07:46:59;90957.97;;;7.92;63.68
52249;BME280;38541;48.130;8.378;2023-03-14T07:49:26;90958.94;;;7.96;64.46
52249;BME280;38541;48.130;8.378;2023-03-14T07:51:52;90969.75;;;7.90;63.35
52249;BME280;38541;48.130;8.378;2023-03-14T07:54:19;90949.59;;;7.76;62.92
52249;BME280;38541;48.130;8.378;2023-03-14T07:56:46;90951.84;;;7.83;63.45
52249;BME280;38541;48.130;8.378;2023-03-14T07:59:13;90928.41;;;7.92;64.31
52249;BME280;38541;48.130;8.378;2023-03-14T08:01:40;90926.78;;;8.10;63.13
52249;BME280;38541;48.130;8.378;2023-03-14T08:04:07;90930.06;;;8.30;62.71
52249;BME280;38541;48.130;8.378;2023-03-14T08:06:35;90926.47;;;8.53;61.54
52249;BME280;38541;48.130;8.378;2023-03-14T08:09:02;90933.56;;;8.53;60.63
52249;BME280;38541;48.130;8.378;2023-03-14T08:11:29;90932.97;;;8.56;61.27
52249;BME280;38541;48.130;8.378;2023-03-14T08:13:55;90924.81;;;8.43;62.05
52249;BME280;38541;48.130;8.378;2023-03-14T08:16:22;90931.97;;;8.66;62.38
52249;BME280;38541;48.130;8.378;2023-03-14T08:18:49;90951.53;;;8.82;61.33
52249;BME280;38541;48.130;8.378;2023-03-14T08:21:15;90949.38;;;8.70;61.48
52249;BME280;38541;48.130;8.378;2023-03-14T08:23:42;90956.00;;;8.68;62.05
52249;BME280;38541;48.130;8.378;2023-03-14T08:26:08;90955.13;;;8.59;62.53
52249;BME280;38541;48.130;8.378;2023-03-14T08:28:35;90962.63;;;8.51;62.44
52249;BME280;38541;48.130;8.378;2023-03-14T08:31:01;90956.69;;;8.74;62.90
52249;BME280;38541;48.130;8.378;2023-03-14T08:33:29;90960.81;;;8.89;62.30
52249;BME280;38541;48.130;8.378;2023-03-14T08:35:57;90964.50;;;8.88;62.53
52249;BME280;38541;48.130;8.378;2023-03-14T08:38:25;90995.84;;;8.79;61.92
52249;BME280;38541;48.130;8.378;2023-03-14T08:40:59;90979.25;;;8.83;62.50
52249;BME280;38541;48.130;8.378;2023-03-14T08:43:26;90978.41;;;8.97;63.25
52249;BME280;38541;48.130;8.378;2023-03-14T08:45:56;90980.84;;;9.07;61.92
52249;BME280;38541;48.130;8.378;2023-03-14T08:48:23;90987.13;;;9.06;62.52
52249;BME280;38541;48.130;8.378;2023-03-14T08:50:50;90985.34;;;9.16;61.69
52249;BME280;38541;48.130;8.378;2023-03-14T08:53:16;91002.81;;;9.20;61.88
52249;BME280;38541;48.130;8.378;2023-03-14T08:55:43;91017.22;;;8.95;61.26
52249;BME280;38541;48.130;8.378;2023-03-14T08:58:09;91025.03;;;8.72;63.32
52249;BME280;38541;48.130;8.378;2023-03-14T09:00:36;91015.69;;;8.94;62.54
52249;BME280;38541;48.130;8.378;2023-03-14T09:03:02;91041.31;;;8.69;62.86
52249;BME280;38541;48.130;8.378;2023-03-14T09:05:33;91018.63;;;8.64;64.72
52249;BME280;38541;48.130;8.378;2023-03-14T09:08:00;91014.81;;;8.98;64.22
52249;BME280;38541;48.130;8.378;2023-03-14T09:10:26;91025.97;;;9.04;65.19
52249;BME280;38541;48.130;8.378;2023-03-14T09:12:53;91027.19;;;9.21;65.02
52249;BME280;38541;48.130;8.378;2023-03-14T09:15:19;91040.31;;;8.93;66.09
52249;BME280;38541;48.130;8.378;2023-03-14T09:17:46;91046.75;;;8.59;65.41
52249;BME280;38541;48.130;8.378;2023-03-14T09:20:12;91057.91;;;8.64;67.53
52249;BME280;38541;48.130;8.378;2023-03-14T09:22:40;91039.66;;;8.73;66.06
52249;BME280;38541;48.130;8.378;2023-03-14T09:25:07;91042.00;;;8.61;65.76
52249;BME280;38541;48.130;8.378;2023-03-14T09:27:34;91044.59;;;8.47;65.56
52249;BME280;38541;48.130;8.378;2023-03-14T09:30:00;91052.75;;;8.45;66.78
52249;BME280;38541;48.130;8.378;2023-03-14T09:32:27;91062.47;;;8.59;66.01
52249;BME280;38541;48.130;8.378;2023-03-14T09:34:53;91051.69;;;8.46;66.14
52249;BME280;38541;48.130;8.378;2023-03-14T09:37:20;91056.25;;;8.54;65.99
52249;BME280;38541;48.130;8.378;2023-03-14T09:39:47;91065.53;;;8.33;66.40
52249;BME280;38541;48.130;8.378;2023-03-14T09:42:17;91069.59;;;8.39;66.87
52249;BME280;38541;48.130;8.378;2023-03-14T09:45:03;91077.16;;;8.26;66.41
52249;BME280;38541;48.130;8.378;2023-03-14T09:47:33;91088.19;;;8.23;67.06
52249;BME280;38541;48.130;8.378;2023-03-14T09:50:01;91076.09;;;8.27;67.10
52249;BME280;38541;48.130;8.378;2023-03-14T09:52:31;91056.44;;;8.44;67.74
52249;BME280;38541;48.130;8.378;2023-03-14T09:55:14;91106.22;;;8.25;66.64
52249;BME280;38541;48.130;8.378;2023-03-14T09:57:43;91080.56;;;7.94;68.32
52249;BME280;38541;48.130;8.378;2023-03-14T10:00:20;91086.19;;;7.87;68.45
52249;BME280;38541;48.130;8.378;2023-03-14T10:02:53;91063.91;;;8.04;68.96
52249;BME280;38541;48.130;8.378;2023-03-14T10:05:23;91052.41;;;8.05;68.70
52249;BME280;38541;48.130;8.378;2023-03-14T10:07:50;91060.41;;;8.27;68.63
52249;BME280;38541;48.130;8.378;2023-03-14T10:10:20;91060.09;;;8.43;68.18
52249;BME280;38541;48.130;8.378;2023-03-14T10:12:54;91068.56;;;8.68;68.06
52249;BME280;38541;48.130;8.378;2023-03-14T10:15:29;91072.06;;;8.63;67.42
52249;BME280;38541;48.130;8.378;2023-03-14T10:17:59;91066.28;;;8.33;68.14
52249;BME280;38541;48.130;8.378;2023-03-14T10:20:38;91072.78;;;8.36;69.77
52249;BME280;38541;48.130;8.378;2023-03-14T10:25:40;91082.75;;;8.20;70.73
52249;BME280;38541;48.130;8.378;2023-03-14T10:28:31;91078.38;;;8.15;72.05
52249;BME280;38541;48.130;8.378;2023-03-14T10:30:58;91082.75;;;8.06;71.29
52249;BME280;38541;48.130;8.378;2023-03-14T10:33:26;91086.19;;;7.87;72.98
52249;BME280;38541;48.130;8.378;2023-03-14T10:35:56;91093.63;;;7.94;73.08
52249;BME280;38541;48.130;8.378;2023-03-14T10:38:26;91097.34;;;7.74;73.76
52249;BME280;38541;48.130;8.378;2023-03-14T10:40:54;91093.69;;;7.75;73.53
52249;BME280;38541;48.130;8.378;2023-03-14T10:43:32;91126.75;;;7.65;73.84
52249;BME280;38541;48.130;8.378;2023-03-14T10:46:09;91102.03;;;7.38;74.36
52249;BME280;38541;48.130;8.378;2023-03-14T10:48:56;91103.03;;;7.42;74.50
52249;BME280;38541;48.130;8.378;2023-03-14T10:51:28;91098.28;;;7.45;74.60
52249;BME280;38541;48.130;8.378;2023-03-14T10:54:02;91107.53;;;7.56;74.82
52249;BME280;38541;48.130;8.378;2023-03-14T10:56:37;91106.13;;;7.45;72.80
52249;BME280;38541;48.130;8.378;2023-03-14T10:59:07;91109.03;;;7.43;74.67
52249;BME280;38541;48.130;8.378;2023-03-14T11:02:00;91117.06;;;7.47;74.70
52249;BME280;38541;48.130;8.378;2023-03-14T11:07:47;91131.44;;;7.68;75.00
52249;BME280;38541;48.130;8.378;2023-03-14T11:09:58;91136.72;;;7.44;74.61
52249;BME280;38541;48.130;8.378;2023-03-14T11:21:11;91144.66;;;7.14;74.88
52249;BME280;38541;48.130;8.378;2023-03-14T11:29:45;91147.94;;;7.25;76.11
52249;BME280;38541;48.130;8.378;2023-03-14T11:32:36;91163.16;;;7.18;75.68
52249;BME280;38541;48.130;8.378;2023-03-14T11:35:16;91149.31;;;7.18;77.39
52249;BME280;38541;48.130;8.378;2023-03-14T11:37:52;91148.66;;;7.31;77.08
52249;BME280;38541;48.130;8.378;2023-03-14T11:40:23;91154.38;;;7.52;75.79
52249;BME280;38541;48.130;8.378;2023-03-14T11:43:00;91157.41;;;7.40;75.16
52249;BME280;38541;48.130;8.378;2023-03-14T11:45:33;91164.09;;;7.27;75.18
52249;BME280;38541;48.130;8.378;2023-03-14T11:48:16;91157.47;;;7.35;76.51
52249;BME280;38541;48.130;8.378;2023-03-14T11:50:47;91156.91;;;7.38;76.00
52249;BME280;38541;48.130;8.378;2023-03-14T11:53:19;91168.63;;;7.41;76.41
52249;BME280;38541;48.130;8.378;2023-03-14T11:55:48;91182.03;;;7.34;77.19
52249;BME280;38541;48.130;8.378;2023-03-14T11:58:24;91215.69;;;7.17;77.86
52249;BME280;38541;48.130;8.378;2023-03-14T12:00:54;91224.78;;;6.95;77.40
52249;BME280;38541;48.130;8.378;2023-03-14T12:03:35;91233.97;;;6.63;76.55
52249;BME280;38541;48.130;8.378;2023-03-14T12:06:16;91234.09;;;6.47;76.60
52249;BME280;38541;48.130;8.378;2023-03-14T12:08:56;91244.03;;;6.45;78.39
52249;BME280;38541;48.130;8.378;2023-03-14T12:11:47;91273.22;;;6.47;77.41
52249;BME280;38541;48.130;8.378;2023-03-14T12:14:25;91260.91;;;6.18;77.90
52249;BME280;38541;48.130;8.378;2023-03-14T12:16:54;91263.88;;;6.01;79.38
52249;BME280;38541;48.130;8.378;2023-03-14T12:22:05;91287.19;;;5.77;79.68
52249;BME280;38541;48.130;8.378;2023-03-14T12:24:36;91293.75;;;5.69;80.50
52249;BME280;38541;48.130;8.378;2023-03-14T12:27:05;91323.97;;;5.65;78.55
52249;BME280;38541;48.130;8.378;2023-03-14T12:29:58;91355.56;;;5.48;79.07
52249;BME280;38541;48.130;8.378;2023-03-14T12:32:29;91329.47;;;5.63;77.67
52249;BME280;38541;48.130;8.378;2023-03-14T12:35:07;91336.50;;;5.63;76.63
52249;BME280;38541;48.130;8.378;2023-03-14T12:37:55;91339.38;;;5.56;76.35
52249;BME280;38541;48.130;8.378;2023-03-14T12:40:30;91333.91;;;5.57;75.61
52249;BME280;38541;48.130;8.378;2023-03-14T12:45:35;91382.38;;;5.43;72.60
52249;BME280;38541;48.130;8.378;2023-03-14T12:48:21;91375.88;;;5.35;72.39
52249;BME280;38541;48.130;8.378;2023-03-14T12:51:11;91374.38;;;5.13;72.65
52249;BME280;38541;48.130;8.378;2023-03-14T12:59:30;91420.94;;;4.58;72.05
52249;BME280;38541;48.130;8.378;2023-03-14T13:13:03;91446.38;;;4.51;70.88
52249;BME280;38541;48.130;8.378;2023-03-14T13:15:43;91465.13;;;4.48;72.11
52249;BME280;38541;48.130;8.378;2023-03-14T13:18:15;91451.91;;;4.75;71.97
52249;BME280;38541;48.130;8.378;2023-03-14T13:20:45;91449.84;;;4.88;71.73
52249;BME280;38541;48.130;8.378;2023-03-14T13:23:32;91468.28;;;4.60;72.40
52249;BME280;38541;48.130;8.378;2023-03-14T13:26:01;91476.34;;;4.69;72.26
52249;BME280;38541;48.130;8.378;2023-03-14T13:28:29;91488.84;;;4.72;71.22
52249;BME280;38541;48.130;8.378;2023-03-14T13:31:03;91497.69;;;4.66;69.41
52249;BME280;38541;48.130;8.378;2023-03-14T13:33:32;91484.13;;;4.64;69.26
52249;BME280;38541;48.130;8.378;2023-03-14T13:36:03;91525.25;;;4.67;67.90
52249;BME280;38541;48.130;8.378;2023-03-14T13:38:32;91506.72;;;4.53;67.71
52249;BME280;38541;48.130;8.378;2023-03-14T13:41:00;91503.53;;;4.35;68.39
52249;BME280;38541;48.130;8.378;2023-03-14T13:46:04;91551.84;;;4.21;68.53
52249;BME280;38541;48.130;8.378;2023-03-14T13:48:36;91549.22;;;4.16;69.30
52249;BME280;38541;48.130;8.378;2023-03-14T13:51:06;91559.84;;;4.09;70.38
52249;BME280;38541;48.130;8.378;2023-03-14T13:53:50;91549.69;;;4.02;71.33
52249;BME280;38541;48.130;8.378;2023-03-14T13:56:18;91582.66;;;4.02;70.11
52249;BME280;38541;48.130;8.378;2023-03-14T13:58:46;91577.41;;;3.91;70.77
52249;BME280;38541;48.130;8.378;2023-03-14T14:01:16;91584.75;;;4.05;71.28
52249;BME280;38541;48.130;8.378;2023-03-14T14:03:45;91572.25;;;3.96;71.57
52249;BME280;38541;48.130;8.378;2023-03-14T14:06:31;91584.31;;;4.13;69.95
52249;BME280;38541;48.130;8.378;2023-03-14T14:09:01;91595.53;;;4.19;69.75
52249;BME280;38541;48.130;8.378;2023-03-14T14:11:44;91595.84;;;4.33;69.05
52249;BME280;38541;48.130;8.378;2023-03-14T14:14:36;91601.91;;;4.49;66.42
52249;BME280;38541;48.130;8.378;2023-03-14T14:17:10;91595.47;;;4.62;67.17
52249;BME280;38541;48.130;8.378;2023-03-14T14:19:39;91604.19;;;4.40;67.08